createdAt,value
2022-08-26T00:01:12.083Z,22.01
2022-08-26T00:03:41.183Z,21.97
2022-08-26T00:06:10.647Z,21.92
2022-08-26T00:08:43.399Z,21.98
2022-08-26T00:11:15.755Z,22.00
2022-08-26T00:13:56.891Z,21.98
2022-08-26T00:16:28.236Z,21.93
2022-08-26T00:18:57.345Z,21.85
2022-08-26T00:21:26.744Z,21.80
2022-08-26T00:23:55.990Z,21.82
2022-08-26T00:26:28.426Z,21.73
2022-08-26T00:28:58.664Z,21.66
2022-08-26T00:31:27.345Z,21.57
2022-08-26T00:33:55.997Z,21.38
2022-08-26T00:36:24.629Z,21.35
2022-08-26T00:38:59.419Z,21.34
2022-08-26T00:41:28.893Z,21.25
2022-08-26T00:43:57.659Z,21.02
2022-08-26T00:46:31.800Z,21.20
2022-08-26T00:49:39.019Z,21.14
2022-08-26T00:52:16.806Z,21.13
2022-08-26T00:55:22.406Z,20.98
2022-08-26T00:57:53.098Z,21.03
2022-08-26T01:00:28.370Z,21.16
2022-08-26T01:03:00.495Z,21.08
2022-08-26T01:05:30.286Z,21.01
2022-08-26T01:07:59.323Z,20.90
2022-08-26T01:10:31.436Z,20.89
2022-08-26T01:13:10.161Z,20.97
2022-08-26T01:15:51.416Z,21.13
2022-08-26T01:18:20.874Z,21.01
2022-08-26T01:21:25.266Z,20.84
2022-08-26T01:23:57.516Z,20.68
2022-08-26T01:26:36.489Z,20.62
2022-08-26T01:29:08.497Z,20.48
2022-08-26T01:31:44.536Z,20.70
2022-08-26T01:34:19.664Z,20.51
2022-08-26T01:36:52.024Z,20.35
2022-08-26T01:39:21.374Z,20.32
2022-08-26T01:41:56.944Z,20.38
2022-08-26T01:44:33.192Z,20.23
2022-08-26T01:47:03.173Z,20.24
2022-08-26T01:49:37.081Z,20.42
2022-08-26T01:52:08.650Z,20.36
2022-08-26T01:54:39.614Z,20.34
2022-08-26T01:57:08.813Z,20.69
2022-08-26T01:59:39.388Z,20.50
2022-08-26T02:02:08.240Z,20.54
2022-08-26T02:04:49.929Z,20.24
2022-08-26T02:07:21.729Z,20.02
2022-08-26T02:09:50.412Z,20.16
2022-08-26T02:12:21.216Z,20.11
2022-08-26T02:14:56.548Z,20.05
2022-08-26T02:17:41.303Z,20.01
2022-08-26T02:20:15.318Z,20.17
2022-08-26T02:22:45.602Z,20.02
2022-08-26T02:25:46.746Z,19.87
2022-08-26T02:28:17.798Z,20.22
2022-08-26T02:30:49.110Z,19.95
2022-08-26T02:33:19.461Z,19.79
2022-08-26T02:35:48.263Z,19.79
2022-08-26T02:38:16.928Z,19.95
2022-08-26T02:40:46.418Z,19.83
2022-08-26T02:43:17.146Z,19.89
2022-08-26T02:45:46.342Z,19.88
2022-08-26T02:48:21.389Z,19.75
2022-08-26T02:50:50.310Z,19.65
2022-08-26T02:53:25.068Z,19.51
2022-08-26T02:55:54.221Z,19.70
2022-08-26T02:58:23.481Z,19.53
2022-08-26T03:00:53.789Z,19.41
2022-08-26T03:03:23.683Z,19.57
2022-08-26T03:05:53.839Z,19.65
2022-08-26T03:08:23.132Z,19.65
2022-08-26T03:10:51.908Z,19.56
2022-08-26T03:13:20.574Z,19.48
2022-08-26T03:15:49.270Z,19.38
2022-08-26T03:18:18.216Z,19.41
2022-08-26T03:20:49.184Z,19.60
2022-08-26T03:23:18.729Z,19.67
2022-08-26T03:25:52.238Z,19.53
2022-08-26T03:28:21.104Z,19.56
2022-08-26T03:30:49.728Z,19.68
2022-08-26T03:33:19.571Z,19.60
2022-08-26T03:35:50.471Z,19.82
2022-08-26T03:38:25.207Z,19.90
2022-08-26T03:40:53.904Z,19.84
2022-08-26T03:43:26.830Z,19.87
2022-08-26T03:45:55.474Z,19.96
2022-08-26T03:48:24.167Z,19.65
2022-08-26T03:50:53.394Z,19.62
2022-08-26T03:53:21.992Z,19.64
2022-08-26T03:55:51.883Z,19.75
2022-08-26T03:58:24.505Z,19.53
2022-08-26T04:00:55.381Z,19.49
2022-08-26T04:03:45.014Z,19.47
2022-08-26T04:06:13.411Z,19.88
2022-08-26T04:08:42.726Z,19.61
2022-08-26T04:11:22.930Z,19.60
2022-08-26T04:13:52.363Z,19.63
2022-08-26T04:16:21.965Z,19.66
2022-08-26T04:18:51.472Z,19.67
2022-08-26T04:21:20.399Z,19.62
2022-08-26T04:23:50.462Z,19.62
2022-08-26T04:26:22.158Z,19.66
2022-08-26T04:28:55.886Z,19.81
2022-08-26T04:31:26.454Z,19.90
2022-08-26T04:33:59.784Z,19.94
2022-08-26T04:36:29.192Z,19.95
2022-08-26T04:39:01.131Z,20.09
2022-08-26T04:41:31.768Z,20.02
2022-08-26T04:44:01.904Z,20.18
2022-08-26T04:46:30.545Z,20.31
2022-08-26T04:49:00.296Z,20.37
2022-08-26T04:51:28.998Z,20.46
2022-08-26T04:53:59.970Z,20.67
2022-08-26T04:56:37.099Z,21.09
2022-08-26T04:59:16.706Z,21.62
2022-08-26T05:01:51.410Z,21.91
2022-08-26T05:04:22.233Z,21.30
2022-08-26T05:06:52.183Z,21.48
2022-08-26T05:09:21.540Z,22.42
2022-08-26T05:11:52.342Z,22.63
2022-08-26T05:14:23.455Z,21.99
2022-08-26T05:16:52.835Z,22.48
2022-08-26T05:19:25.313Z,22.37
2022-08-26T05:21:56.499Z,22.31
2022-08-26T05:24:25.999Z,22.53
2022-08-26T05:26:56.453Z,23.21
2022-08-26T05:29:25.407Z,22.91
2022-08-26T05:31:54.173Z,22.87
2022-08-26T05:34:25.784Z,24.29
2022-08-26T05:36:59.362Z,25.43
2022-08-26T05:39:27.986Z,24.42
2022-08-26T05:41:57.170Z,23.58
2022-08-26T05:44:25.947Z,23.60
2022-08-26T05:46:54.656Z,24.33
2022-08-26T05:49:26.351Z,24.04
2022-08-26T05:51:55.304Z,24.32
2022-08-26T05:54:24.168Z,24.49
2022-08-26T05:56:52.967Z,24.94
2022-08-26T05:59:24.646Z,25.03
2022-08-26T06:01:57.419Z,24.81
2022-08-26T06:04:27.553Z,24.72
2022-08-26T06:06:59.161Z,26.49
2022-08-26T06:09:27.939Z,26.60
2022-08-26T06:11:58.924Z,27.26
2022-08-26T06:14:27.660Z,27.19
2022-08-26T06:16:57.699Z,27.38
2022-08-26T06:19:26.399Z,26.57
2022-08-26T06:22:23.281Z,26.01
2022-08-26T06:25:10.742Z,27.34
2022-08-26T06:27:39.606Z,26.34
2022-08-26T06:30:10.068Z,27.34
2022-08-26T06:32:38.982Z,27.66
2022-08-26T06:35:12.189Z,27.91
2022-08-26T06:37:41.258Z,27.61
2022-08-26T06:40:11.486Z,30.02
2022-08-26T06:42:40.741Z,29.79
2022-08-26T06:45:09.932Z,30.08
2022-08-26T06:47:39.738Z,28.77
2022-08-26T06:50:08.825Z,30.31
2022-08-26T06:52:37.790Z,33.75
2022-08-26T06:55:07.117Z,34.87
2022-08-26T06:57:39.692Z,35.31
2022-08-26T07:00:11.591Z,34.89
2022-08-26T07:02:41.259Z,35.61
2022-08-26T07:05:15.556Z,33.68
2022-08-26T07:07:44.139Z,30.25
2022-08-26T07:10:12.660Z,28.77
2022-08-26T07:12:41.179Z,28.60
2022-08-26T07:15:10.626Z,28.58
2022-08-26T07:17:39.548Z,28.26
2022-08-26T07:20:11.663Z,27.68
2022-08-26T07:22:40.228Z,28.20
2022-08-26T07:25:11.549Z,33.70
2022-08-26T07:27:40.234Z,35.73
2022-08-26T07:30:09.941Z,35.56
2022-08-26T07:32:43.608Z,35.31
2022-08-26T07:35:12.107Z,30.16
2022-08-26T07:37:40.760Z,29.35
2022-08-26T07:40:10.442Z,29.01
2022-08-26T07:42:40.167Z,29.06
2022-08-26T07:45:09.412Z,29.24
2022-08-26T07:47:38.111Z,29.46
2022-08-26T07:50:07.395Z,29.32
2022-08-26T07:52:38.366Z,29.57
2022-08-26T07:55:10.773Z,29.31
2022-08-26T07:57:39.959Z,29.50
2022-08-26T08:00:16.205Z,30.18
2022-08-26T08:02:45.279Z,30.23
2022-08-26T08:05:19.709Z,29.80
2022-08-26T08:07:53.634Z,29.54
2022-08-26T08:10:39.363Z,30.29
2022-08-26T08:13:08.685Z,30.66
2022-08-26T08:15:39.328Z,30.50
2022-08-26T08:18:15.397Z,30.34
2022-08-26T08:20:47.720Z,30.96
2022-08-26T08:23:33.721Z,30.71
2022-08-26T08:26:07.491Z,30.80
2022-08-26T08:28:39.024Z,30.57
2022-08-26T08:31:10.471Z,31.38
2022-08-26T08:33:38.951Z,31.05
2022-08-26T08:36:09.252Z,31.26
2022-08-26T08:38:37.912Z,31.08
2022-08-26T08:41:06.693Z,31.45
2022-08-26T08:43:46.563Z,31.95
2022-08-26T08:46:19.555Z,32.11
2022-08-26T08:48:57.013Z,31.87
2022-08-26T08:51:59.240Z,31.87
2022-08-26T08:54:29.243Z,31.83
2022-08-26T08:57:38.797Z,31.68
2022-08-26T09:00:18.237Z,32.22
2022-08-26T09:03:04.751Z,31.99
2022-08-26T09:05:48.509Z,31.71
2022-08-26T09:08:27.618Z,31.88
2022-08-26T09:11:00.562Z,32.00
2022-08-26T09:13:31.835Z,32.55
2022-08-26T09:16:25.606Z,32.57
2022-08-26T09:19:54.728Z,32.50
2022-08-26T09:22:36.059Z,32.75
2022-08-26T09:25:12.941Z,32.80
2022-08-26T09:27:50.758Z,33.39
2022-08-26T09:30:30.077Z,33.16
2022-08-26T09:33:11.417Z,33.22
2022-08-26T09:35:47.115Z,33.67
2022-08-26T09:38:27.881Z,33.37
2022-08-26T09:41:27.094Z,33.19
2022-08-26T09:44:19.292Z,33.25
2022-08-26T09:47:05.529Z,33.36
2022-08-26T09:49:38.702Z,33.84
2022-08-26T09:52:24.701Z,33.85
2022-08-26T09:55:24.106Z,33.73
2022-08-26T09:57:55.591Z,33.90
2022-08-26T10:00:54.203Z,33.31
2022-08-26T10:03:36.633Z,33.98
2022-08-26T10:06:17.764Z,34.16
2022-08-26T10:08:59.265Z,33.62
2022-08-26T10:11:49.013Z,33.88
2022-08-26T10:14:30.171Z,32.90
2022-08-26T10:17:55.413Z,33.44
2022-08-26T10:20:36.847Z,32.99
2022-08-26T10:23:18.203Z,33.51
2022-08-26T10:26:00.594Z,32.98
2022-08-26T10:28:44.453Z,32.88
2022-08-26T10:32:02.492Z,33.47
2022-08-26T10:34:35.067Z,33.69
2022-08-26T10:37:20.629Z,33.00
2022-08-26T10:40:07.704Z,33.49
2022-08-26T10:42:47.049Z,33.26
2022-08-26T10:45:28.628Z,32.88
2022-08-26T10:48:11.424Z,33.49
2022-08-26T10:50:47.398Z,34.22
2022-08-26T10:53:46.843Z,33.80
2022-08-26T10:57:16.180Z,34.05
2022-08-26T10:59:52.327Z,33.93
2022-08-26T11:02:46.962Z,33.88
2022-08-26T11:05:23.778Z,33.65
2022-08-26T11:07:57.095Z,33.73
2022-08-26T11:10:25.520Z,33.81
2022-08-26T11:13:03.674Z,33.85
2022-08-26T11:15:32.770Z,33.88
2022-08-26T11:18:36.911Z,34.02
2022-08-26T11:21:52.158Z,33.79
2022-08-26T11:24:57.180Z,34.23
2022-08-26T11:27:37.452Z,33.83
2022-08-26T11:30:37.042Z,33.43
2022-08-26T11:33:07.184Z,33.53
2022-08-26T11:35:38.933Z,34.16
2022-08-26T11:38:29.197Z,33.99
2022-08-26T11:41:17.946Z,34.01
2022-08-26T11:43:49.523Z,34.23
2022-08-26T11:46:28.419Z,34.48
2022-08-26T11:49:07.272Z,34.88
2022-08-26T11:51:40.174Z,34.60
2022-08-26T11:54:26.948Z,34.28
2022-08-26T11:57:09.496Z,33.98
2022-08-26T11:59:43.546Z,34.21
2022-08-26T12:02:17.842Z,34.90
2022-08-26T12:04:51.324Z,34.70
2022-08-26T12:07:28.508Z,34.21
2022-08-26T12:10:02.474Z,34.11
2022-08-26T12:12:42.595Z,34.92
2022-08-26T12:15:24.256Z,33.81
2022-08-26T12:17:54.598Z,34.28
2022-08-26T12:20:48.697Z,34.15
2022-08-26T12:23:37.345Z,34.21
2022-08-26T12:26:34.050Z,34.54
2022-08-26T12:29:31.659Z,34.35
2022-08-26T12:32:15.777Z,34.22
2022-08-26T12:34:49.099Z,34.15
2022-08-26T12:37:19.005Z,34.24
2022-08-26T12:39:49.288Z,33.96
2022-08-26T12:42:21.935Z,33.72
2022-08-26T12:45:06.651Z,34.00
2022-08-26T12:47:44.457Z,33.69
2022-08-26T12:50:25.941Z,34.09
2022-08-26T12:53:10.623Z,34.24
2022-08-26T12:55:48.752Z,34.77
2022-08-26T12:58:36.746Z,34.46
2022-08-26T13:01:05.353Z,34.65
2022-08-26T13:03:43.403Z,34.88
2022-08-26T13:06:23.837Z,34.78
2022-08-26T13:08:56.002Z,34.94
2022-08-26T13:11:41.185Z,34.62
2022-08-26T13:14:23.851Z,34.36
2022-08-26T13:16:53.881Z,34.48
2022-08-26T13:19:25.818Z,34.42
2022-08-26T13:21:58.026Z,34.39
2022-08-26T13:24:38.671Z,34.65
2022-08-26T13:27:11.884Z,34.57
2022-08-26T13:29:41.574Z,34.86
2022-08-26T13:32:11.035Z,34.67
2022-08-26T13:34:40.055Z,34.62
2022-08-26T13:37:08.544Z,34.02
2022-08-26T13:39:38.228Z,33.90
2022-08-26T13:42:06.851Z,34.05
2022-08-26T13:44:36.374Z,34.21
2022-08-26T13:47:06.074Z,34.39
2022-08-26T13:49:34.448Z,34.59
2022-08-26T13:52:03.782Z,34.20
2022-08-26T13:54:32.247Z,34.29
2022-08-26T13:57:00.719Z,34.72
2022-08-26T13:59:29.342Z,34.50
2022-08-26T14:01:58.898Z,34.14
2022-08-26T14:04:27.668Z,34.12
2022-08-26T14:06:57.037Z,34.14
2022-08-26T14:09:25.610Z,34.44
2022-08-26T14:11:55.044Z,34.54
2022-08-26T14:14:25.159Z,34.21
2022-08-26T14:16:59.817Z,34.40
2022-08-26T14:19:30.857Z,34.19
2022-08-26T14:22:01.542Z,34.22
2022-08-26T14:24:30.651Z,34.35
2022-08-26T14:26:59.583Z,34.21
2022-08-26T14:29:28.454Z,34.41
2022-08-26T14:31:59.804Z,34.45
2022-08-26T14:34:28.398Z,34.36
2022-08-26T14:36:56.796Z,34.26
2022-08-26T14:39:25.263Z,34.07
2022-08-26T14:41:57.184Z,34.09
2022-08-26T14:44:32.719Z,34.23
2022-08-26T14:47:05.015Z,34.04
2022-08-26T14:49:33.664Z,34.18
2022-08-26T14:52:03.224Z,33.90
2022-08-26T14:54:31.718Z,33.81
2022-08-26T14:57:05.592Z,34.05
2022-08-26T14:59:39.694Z,34.18
2022-08-26T15:02:13.657Z,34.22
2022-08-26T15:04:50.740Z,33.87
2022-08-26T15:07:19.240Z,33.98
2022-08-26T15:09:48.019Z,33.74
2022-08-26T15:12:16.422Z,33.53
2022-08-26T15:14:44.814Z,33.62
2022-08-26T15:17:13.267Z,33.77
2022-08-26T15:19:41.740Z,33.66
2022-08-26T15:22:10.503Z,33.84
2022-08-26T15:24:39.025Z,33.59
2022-08-26T15:27:08.529Z,33.53
2022-08-26T15:29:39.762Z,33.42
2022-08-26T15:32:08.460Z,33.54
2022-08-26T15:34:37.027Z,33.34
2022-08-26T15:37:06.559Z,33.62
2022-08-26T15:39:36.790Z,33.57
2022-08-26T15:42:05.801Z,33.45
2022-08-26T15:44:34.335Z,33.16
2022-08-26T15:47:02.913Z,33.41
2022-08-26T15:49:31.399Z,33.42
2022-08-26T15:51:59.800Z,33.25
2022-08-26T15:54:28.191Z,33.32
2022-08-26T15:56:57.250Z,33.13
2022-08-26T15:59:25.979Z,33.09
2022-08-26T16:01:59.250Z,33.16
2022-08-26T16:04:27.991Z,33.08
2022-08-26T16:06:56.434Z,32.87
2022-08-26T16:09:27.290Z,32.64
2022-08-26T16:11:57.158Z,32.54
2022-08-26T16:14:27.383Z,32.53
2022-08-26T16:16:58.609Z,32.58
2022-08-26T16:19:27.571Z,32.66
2022-08-26T16:21:55.992Z,32.48
2022-08-26T16:24:30.088Z,32.20
2022-08-26T16:26:59.055Z,32.29
2022-08-26T16:29:28.113Z,32.25
2022-08-26T16:31:57.321Z,31.95
2022-08-26T16:34:26.101Z,31.87
2022-08-26T16:36:56.035Z,31.73
2022-08-26T16:39:27.401Z,31.96
2022-08-26T16:41:55.946Z,31.69
2022-08-26T16:44:24.683Z,31.60
2022-08-26T16:46:59.170Z,31.61
2022-08-26T16:49:27.731Z,31.44
2022-08-26T16:51:57.261Z,31.36
2022-08-26T16:54:26.690Z,31.11
2022-08-26T16:56:55.203Z,31.13
2022-08-26T16:59:24.222Z,30.95
2022-08-26T17:01:53.046Z,30.98
2022-08-26T17:04:22.120Z,30.93
2022-08-26T17:06:51.328Z,30.83
2022-08-26T17:09:20.303Z,30.67
2022-08-26T17:11:49.036Z,30.51
2022-08-26T17:14:17.753Z,30.54
2022-08-26T17:16:47.086Z,30.49
2022-08-26T17:19:17.817Z,30.39
2022-08-26T17:21:47.302Z,30.14
2022-08-26T17:24:15.739Z,30.12
2022-08-26T17:26:53.454Z,29.94
2022-08-26T17:29:24.075Z,29.91
2022-08-26T17:31:52.639Z,29.73
2022-08-26T17:34:22.836Z,29.54
2022-08-26T17:36:51.748Z,29.44
2022-08-26T17:39:20.526Z,29.33
2022-08-26T17:41:49.127Z,29.27
2022-08-26T17:44:17.615Z,29.16
2022-08-26T17:46:46.111Z,29.04
2022-08-26T17:49:14.544Z,28.92
2022-08-26T17:51:43.044Z,28.86
2022-08-26T17:54:11.692Z,28.70
2022-08-26T17:56:40.245Z,28.59
2022-08-26T17:59:09.946Z,28.61
2022-08-26T18:01:39.867Z,28.20
2022-08-26T18:04:08.522Z,28.36
2022-08-26T18:06:38.365Z,27.94
2022-08-26T18:09:07.123Z,27.79
2022-08-26T18:11:35.877Z,27.70
2022-08-26T18:14:04.633Z,27.62
2022-08-26T18:16:38.341Z,27.27
2022-08-26T18:19:07.991Z,27.35
2022-08-26T18:21:37.006Z,27.27
2022-08-26T18:24:07.562Z,27.16
2022-08-26T18:26:41.612Z,27.11
2022-08-26T18:29:11.308Z,27.23
2022-08-26T18:31:40.069Z,26.96
2022-08-26T18:34:12.954Z,27.06
2022-08-26T18:36:41.794Z,26.69
2022-08-26T18:39:12.486Z,26.38
2022-08-26T18:41:47.915Z,26.64
2022-08-26T18:44:20.301Z,26.59
2022-08-26T18:46:50.251Z,26.30
2022-08-26T18:49:21.555Z,26.12
2022-08-26T18:51:53.040Z,26.04
2022-08-26T18:54:22.253Z,26.37
2022-08-26T18:56:50.973Z,25.88
2022-08-26T18:59:19.743Z,25.94
2022-08-26T19:01:55.549Z,25.96
2022-08-26T19:04:24.255Z,25.70
2022-08-26T19:06:53.482Z,25.66
2022-08-26T19:09:22.131Z,25.71
2022-08-26T19:11:51.506Z,25.55
2022-08-26T19:14:20.893Z,25.04
2022-08-26T19:16:52.554Z,25.12
2022-08-26T19:19:25.751Z,25.30
2022-08-26T19:21:55.194Z,25.11
2022-08-26T19:24:27.439Z,25.06
2022-08-26T19:27:01.296Z,25.05
2022-08-26T19:29:35.888Z,25.13
2022-08-26T19:32:05.509Z,25.14
2022-08-26T19:34:34.290Z,25.06
2022-08-26T19:37:02.884Z,25.00
2022-08-26T19:39:31.581Z,25.16
2022-08-26T19:42:00.648Z,24.94
2022-08-26T19:44:47.832Z,24.70
2022-08-26T19:47:16.342Z,24.64
2022-08-26T19:49:45.862Z,24.70
2022-08-26T19:52:14.720Z,24.37
2022-08-26T19:54:43.290Z,24.34
2022-08-26T19:57:12.031Z,24.26
2022-08-26T19:59:41.799Z,24.35
2022-08-26T20:02:11.449Z,24.11
2022-08-26T20:04:44.327Z,24.20
2022-08-26T20:07:18.503Z,24.16
2022-08-26T20:09:49.279Z,24.05
2022-08-26T20:12:18.895Z,23.96
2022-08-26T20:14:47.682Z,23.84
2022-08-26T20:17:17.211Z,23.78
2022-08-26T20:20:04.747Z,23.93
2022-08-26T20:22:35.951Z,23.76
2022-08-26T20:25:06.409Z,23.63
2022-08-26T20:27:38.211Z,23.61
2022-08-26T20:30:10.524Z,23.53
2022-08-26T20:32:40.264Z,23.38
2022-08-26T20:35:15.900Z,23.33
2022-08-26T20:37:44.597Z,23.32
2022-08-26T20:40:15.517Z,23.26
2022-08-26T20:42:43.991Z,23.18
2022-08-26T20:45:12.737Z,23.29
2022-08-26T20:47:42.910Z,23.20
2022-08-26T20:50:11.455Z,23.00
2022-08-26T20:52:40.090Z,23.08
2022-08-26T20:55:09.570Z,23.24
2022-08-26T20:57:38.015Z,23.01
2022-08-26T21:00:08.223Z,22.98
2022-08-26T21:02:37.078Z,23.00
2022-08-26T21:05:07.361Z,22.81
2022-08-26T21:07:36.159Z,22.83
2022-08-26T21:10:05.566Z,22.89
2022-08-26T21:12:34.189Z,22.97
2022-08-26T21:15:04.623Z,23.20
2022-08-26T21:17:35.296Z,22.90
2022-08-26T21:20:04.990Z,22.85
2022-08-26T21:22:34.200Z,22.98
2022-08-26T21:25:02.958Z,22.92
2022-08-26T21:27:31.663Z,22.69
2022-08-26T21:30:00.110Z,22.73
2022-08-26T21:32:29.047Z,22.62
2022-08-26T21:35:00.072Z,22.58
2022-08-26T21:37:29.749Z,22.52
2022-08-26T21:40:02.139Z,22.52
2022-08-26T21:42:34.744Z,22.37
2022-08-26T21:45:04.505Z,22.40
2022-08-26T21:47:33.193Z,22.10
2022-08-26T21:50:01.963Z,22.20
2022-08-26T21:52:30.530Z,21.78
2022-08-26T21:55:04.512Z,21.58
2022-08-26T21:57:37.765Z,21.55
2022-08-26T22:00:10.274Z,21.59
2022-08-26T22:02:39.236Z,21.53
2022-08-26T22:05:08.497Z,21.32
2022-08-26T22:07:37.077Z,21.39
2022-08-26T22:10:06.683Z,21.35
2022-08-26T22:12:35.365Z,21.34
2022-08-26T22:15:05.026Z,21.31
2022-08-26T22:17:33.698Z,21.29
2022-08-26T22:20:02.578Z,21.02
2022-08-26T22:22:32.325Z,21.15
2022-08-26T22:25:00.855Z,21.17
2022-08-26T22:27:29.508Z,21.18
2022-08-26T22:29:58.142Z,21.07
2022-08-26T22:32:27.569Z,20.95
2022-08-26T22:34:56.945Z,20.99
2022-08-26T22:37:26.339Z,21.17
2022-08-26T22:39:54.986Z,20.99
2022-08-26T22:42:23.551Z,21.21
2022-08-26T22:44:52.166Z,21.59
2022-08-26T22:47:20.809Z,21.61
2022-08-26T22:49:49.435Z,21.86
2022-08-26T22:52:18.052Z,21.37
2022-08-26T22:54:46.701Z,21.16
2022-08-26T22:57:15.399Z,21.06
2022-08-26T22:59:44.649Z,20.91
2022-08-26T23:02:13.599Z,20.75
2022-08-26T23:04:43.034Z,20.60
2022-08-26T23:07:12.433Z,20.37
2022-08-26T23:09:41.032Z,20.32
2022-08-26T23:12:09.939Z,20.05
2022-08-26T23:14:40.583Z,20.15
2022-08-26T23:17:14.386Z,20.19
2022-08-26T23:19:42.273Z,20.13
2022-08-26T23:22:11.033Z,20.01
2022-08-26T23:24:40.552Z,20.13
2022-08-26T23:27:09.423Z,19.95
2022-08-26T23:29:37.941Z,19.83
2022-08-26T23:32:06.772Z,19.84
2022-08-26T23:34:55.984Z,19.82
2022-08-26T23:37:37.211Z,19.91
2022-08-26T23:40:36.389Z,20.04
2022-08-26T23:43:11.546Z,19.65
2022-08-26T23:45:40.379Z,19.59
2022-08-26T23:48:08.298Z,19.78
2022-08-26T23:50:54.730Z,19.55
2022-08-26T23:53:23.629Z,19.66
2022-08-26T23:55:54.125Z,19.89
2022-08-26T23:58:23.221Z,19.69
